Kingville, South Carolina
Current Conditions -  °F | °C
As of 12:58 PM on Wednesday 26 Nov 2014 (Local Time) from KMMT Reporting Station
Broken Clouds Broken Clouds  
Wind Chill: 12°   Ceiling: 2100
Heat Index: 12°   Visibility: 10mi
Dew Point:   Wind: 13mph
Humidity: 77%   Direction: 310°NW
Pressure: 30.01"   Gusts: NA
Location:  33.8428°N, 80.7414°W
Report Text: KMMT 261758Z 31011KT 10SM BKN021 12/08 A3001 RMK AO2A SLP165 60014 T01170077 10118 20088 50006
Loading
Personal Weather Stations






























Interactive Weather Map New forecast layout! Learn more

10-Day Weather Forecast

Advertisements
Track Severe Weather on mobile